createdAt,value
2023-02-11T00:01:38.386Z,30.10
2023-02-11T00:04:07.560Z,28.50
2023-02-11T00:06:36.549Z,27.80
2023-02-11T00:09:06.384Z,30.50
2023-02-11T00:11:35.249Z,29.50
2023-02-11T00:14:08.684Z,27.90
2023-02-11T00:16:37.403Z,29.10
2023-02-11T00:19:06.888Z,31.00
2023-02-11T00:21:35.562Z,27.80
2023-02-11T00:24:05.147Z,28.80
2023-02-11T00:26:35.805Z,28.20
2023-02-11T00:29:05.319Z,28.40
2023-02-11T00:31:34.742Z,28.00
2023-02-11T00:34:03.450Z,29.10
2023-02-11T00:36:32.183Z,27.80
2023-02-11T00:39:01.280Z,26.00
2023-02-11T00:41:30.553Z,27.30
2023-02-11T00:44:02.924Z,27.30
2023-02-11T00:46:31.754Z,25.10
2023-02-11T00:49:01.052Z,27.40
2023-02-11T00:51:29.809Z,28.90
2023-02-11T00:53:58.369Z,28.10
2023-02-11T00:56:27.604Z,30.00
2023-02-11T00:58:58.307Z,26.70
2023-02-11T01:01:27.620Z,32.20
2023-02-11T01:03:56.585Z,30.70
2023-02-11T01:06:25.431Z,29.70
2023-02-11T01:08:54.070Z,32.20
2023-02-11T01:11:23.051Z,30.60
2023-02-11T01:13:51.844Z,31.00
2023-02-11T01:16:21.736Z,31.90
2023-02-11T01:18:50.670Z,31.20
2023-02-11T01:21:19.615Z,29.60
2023-02-11T01:23:48.345Z,32.90
2023-02-11T01:26:17.476Z,34.00
2023-02-11T01:28:46.184Z,30.90
2023-02-11T01:31:15.539Z,32.80
2023-02-11T01:33:44.298Z,30.60
2023-02-11T01:36:13.355Z,29.20
2023-02-11T01:38:42.108Z,28.10
2023-02-11T01:41:13.428Z,28.80
2023-02-11T01:43:49.781Z,31.80
2023-02-11T01:46:36.188Z,31.80
2023-02-11T01:49:38.123Z,29.70
2023-02-11T01:52:29.581Z,30.30
2023-02-11T01:55:25.516Z,29.70
2023-02-11T01:58:00.305Z,27.60
2023-02-11T02:00:39.319Z,29.30
2023-02-11T02:03:20.347Z,30.60
2023-02-11T02:06:35.440Z,28.60
2023-02-11T02:09:17.105Z,30.90
2023-02-11T02:11:45.887Z,29.80
2023-02-11T02:14:14.675Z,28.30
2023-02-11T02:16:43.370Z,29.50
2023-02-11T02:19:30.267Z,28.60
2023-02-11T02:22:33.053Z,29.10
2023-02-11T02:25:26.658Z,27.90
2023-02-11T02:28:39.951Z,26.30
2023-02-11T02:31:47.542Z,25.20
2023-02-11T02:34:47.059Z,25.60
2023-02-11T02:37:52.265Z,25.70
2023-02-11T02:40:38.392Z,26.30
2023-02-11T02:43:10.300Z,26.10
2023-02-11T02:45:39.069Z,28.10
2023-02-11T02:48:07.831Z,19.90
2023-02-11T02:50:38.408Z,27.90
2023-02-11T02:53:32.577Z,25.20
2023-02-11T02:56:35.944Z,25.20
2023-02-11T02:59:27.772Z,26.20
2023-02-11T03:02:16.217Z,27.90
2023-02-11T03:05:05.289Z,26.00
2023-02-11T03:08:10.800Z,26.90
2023-02-11T03:10:45.787Z,25.80
2023-02-11T03:13:17.754Z,25.60
2023-02-11T03:15:53.358Z,27.50
2023-02-11T03:18:26.878Z,27.60
2023-02-11T03:20:57.201Z,27.70
2023-02-11T03:23:55.938Z,27.60
2023-02-11T03:26:43.224Z,28.10
2023-02-11T03:29:55.344Z,27.10
2023-02-11T03:32:37.137Z,26.70
2023-02-11T03:35:36.309Z,28.70
2023-02-11T03:38:16.184Z,29.20
2023-02-11T03:40:46.185Z,28.10
2023-02-11T03:43:24.430Z,27.90
2023-02-11T03:45:54.688Z,28.50
2023-02-11T03:48:32.308Z,27.70
2023-02-11T03:51:06.832Z,31.90
2023-02-11T03:53:38.993Z,29.50
2023-02-11T03:56:14.847Z,27.80
2023-02-11T03:58:46.407Z,28.70
2023-02-11T04:01:15.762Z,28.60
2023-02-11T04:03:44.492Z,30.30
2023-02-11T04:06:13.171Z,26.50
2023-02-11T04:08:41.852Z,26.80
2023-02-11T04:11:10.671Z,26.10
2023-02-11T04:13:39.365Z,26.60
2023-02-11T04:16:08.298Z,26.80
2023-02-11T04:18:36.905Z,26.80
2023-02-11T04:21:06.426Z,24.40
2023-02-11T04:23:35.204Z,23.70
2023-02-11T04:26:04.524Z,24.90
2023-02-11T04:28:33.309Z,24.90
2023-02-11T04:31:02.450Z,26.20
2023-02-11T04:33:31.170Z,25.40
2023-02-11T04:35:59.960Z,25.90
2023-02-11T04:38:28.745Z,25.20
2023-02-11T04:40:58.509Z,25.70
2023-02-11T04:43:27.261Z,23.80
2023-02-11T04:45:59.225Z,23.10
2023-02-11T04:48:28.010Z,22.60
2023-02-11T04:50:56.796Z,21.90
2023-02-11T04:53:25.392Z,22.60
2023-02-11T04:55:54.159Z,24.10
2023-02-11T04:58:23.043Z,22.40
2023-02-11T05:00:51.762Z,22.30
2023-02-11T05:03:20.293Z,23.80
2023-02-11T05:05:49.151Z,25.30
2023-02-11T05:08:18.138Z,25.20
2023-02-11T05:10:48.321Z,25.30
2023-02-11T05:13:16.997Z,27.00
2023-02-11T05:15:45.921Z,24.40
2023-02-11T05:18:17.393Z,24.00
2023-02-11T05:20:46.066Z,25.40
2023-02-11T05:23:14.813Z,27.50
2023-02-11T05:25:43.603Z,24.60
2023-02-11T05:28:12.422Z,23.80
2023-02-11T05:30:41.265Z,25.80
2023-02-11T05:33:10.067Z,24.90
2023-02-11T05:35:38.959Z,24.50
2023-02-11T05:38:07.718Z,25.80
2023-02-11T05:40:37.176Z,26.50
2023-02-11T05:43:06.071Z,27.40
2023-02-11T05:45:35.295Z,29.50
2023-02-11T05:48:04.334Z,29.40
2023-02-11T05:50:32.885Z,27.40
2023-02-11T05:53:01.639Z,26.50
2023-02-11T05:55:30.395Z,27.40
2023-02-11T05:57:59.176Z,26.30
2023-02-11T06:00:28.180Z,25.10
2023-02-11T06:02:56.890Z,25.80
2023-02-11T06:05:25.851Z,24.80
2023-02-11T06:07:54.534Z,24.90
2023-02-11T06:10:23.147Z,23.70
2023-02-11T06:12:51.693Z,24.60
2023-02-11T06:15:20.557Z,24.70
2023-02-11T06:17:49.094Z,23.10
2023-02-11T06:20:18.063Z,23.50
2023-02-11T06:22:47.184Z,24.20
2023-02-11T06:25:16.151Z,24.30
2023-02-11T06:27:44.743Z,23.40
2023-02-11T06:30:14.765Z,23.70
2023-02-11T06:32:45.484Z,23.20
2023-02-11T06:35:15.062Z,23.80
2023-02-11T06:37:44.012Z,22.20
2023-02-11T06:40:13.492Z,25.70
2023-02-11T06:42:42.172Z,24.30
2023-02-11T06:45:13.262Z,23.40
2023-02-11T06:47:42.292Z,23.40
2023-02-11T06:50:14.724Z,24.50
2023-02-11T06:52:43.510Z,23.20
2023-02-11T06:55:12.233Z,18.80
2023-02-11T06:57:40.981Z,19.80
2023-02-11T07:00:10.606Z,19.80
2023-02-11T07:05:08.337Z,18.20
2023-02-11T07:07:37.482Z,19.90
2023-02-11T07:10:06.975Z,20.40
2023-02-11T07:15:04.922Z,18.10
2023-02-11T07:17:36.168Z,19.90
2023-02-11T07:20:05.261Z,20.00
2023-02-11T07:22:35.062Z,19.70
2023-02-11T07:25:04.628Z,20.00
2023-02-11T07:30:02.174Z,21.90
2023-02-11T07:32:30.841Z,21.10
2023-02-11T07:34:59.391Z,18.90
2023-02-11T07:37:28.425Z,20.40
2023-02-11T07:39:58.215Z,22.00
2023-02-11T07:42:26.922Z,20.90
2023-02-11T07:44:55.595Z,20.90
2023-02-11T07:47:24.093Z,20.30
2023-02-11T07:49:56.158Z,20.20
2023-02-11T07:52:25.238Z,20.60
2023-02-11T07:54:54.023Z,20.20
2023-02-11T07:57:22.666Z,19.50
2023-02-11T07:59:51.191Z,21.50
2023-02-11T08:02:19.907Z,20.50
2023-02-11T08:04:48.541Z,21.00
2023-02-11T08:07:18.972Z,19.40
2023-02-11T08:09:47.817Z,20.40
2023-02-11T08:12:16.385Z,18.80
2023-02-11T08:14:44.938Z,18.40
2023-02-11T08:17:13.622Z,19.80
2023-02-11T08:19:42.236Z,20.20
2023-02-11T08:22:10.808Z,20.80
2023-02-11T08:24:39.387Z,24.00
2023-02-11T08:27:08.004Z,22.90
2023-02-11T08:29:36.741Z,20.80
2023-02-11T08:32:05.576Z,20.30
2023-02-11T08:34:34.660Z,21.20
2023-02-11T08:37:03.307Z,23.40
2023-02-11T08:39:31.906Z,20.00
2023-02-11T08:42:00.680Z,23.80
2023-02-11T08:44:30.207Z,21.80
2023-02-11T08:46:58.795Z,21.20
2023-02-11T08:49:27.363Z,19.90
2023-02-11T08:51:56.654Z,20.70
2023-02-11T08:54:25.398Z,19.20
2023-02-11T08:56:53.999Z,19.40
2023-02-11T08:59:23.015Z,18.90
2023-02-11T09:01:51.858Z,19.80
2023-02-11T09:04:20.564Z,19.70
2023-02-11T09:06:49.338Z,20.40
2023-02-11T09:09:18.119Z,21.20
2023-02-11T09:11:46.854Z,21.20
2023-02-11T09:14:23.049Z,22.10
2023-02-11T09:16:52.269Z,20.70
2023-02-11T09:19:21.641Z,19.10
2023-02-11T09:21:50.606Z,18.40
2023-02-11T09:24:19.729Z,20.40
2023-02-11T09:26:49.839Z,20.70
2023-02-11T09:29:18.551Z,20.50
2023-02-11T09:31:47.237Z,18.80
2023-02-11T09:34:16.324Z,18.00
2023-02-11T09:36:45.085Z,16.90
2023-02-11T09:39:20.620Z,17.40
2023-02-11T09:42:32.832Z,17.50
2023-02-11T09:45:02.977Z,15.50
2023-02-11T09:47:36.248Z,16.00
2023-02-11T09:50:15.255Z,16.70
2023-02-11T09:53:03.912Z,17.30
2023-02-11T09:55:42.207Z,16.10
2023-02-11T09:58:20.956Z,13.10
2023-02-11T10:01:19.425Z,13.90
2023-02-11T10:04:12.543Z,16.00
2023-02-11T10:06:54.617Z,13.30
2023-02-11T10:09:48.810Z,14.50
2023-02-11T10:12:36.015Z,14.20
2023-02-11T10:15:35.595Z,14.20
2023-02-11T10:18:38.237Z,15.00
2023-02-11T10:21:15.968Z,14.80
2023-02-11T10:23:52.159Z,13.80
2023-02-11T10:26:20.964Z,13.90
2023-02-11T10:28:54.689Z,13.80
2023-02-11T10:31:29.015Z,14.40
2023-02-11T10:34:12.998Z,13.40
2023-02-11T10:36:44.465Z,13.30
2023-02-11T10:39:23.305Z,13.80
2023-02-11T10:41:58.153Z,14.30
2023-02-11T10:44:44.348Z,14.90
2023-02-11T10:47:25.703Z,13.40
2023-02-11T10:49:54.489Z,13.00
2023-02-11T10:52:26.645Z,12.90
2023-02-11T10:55:25.596Z,11.70
2023-02-11T10:58:03.528Z,10.80
2023-02-11T11:00:43.686Z,10.20
2023-02-11T11:03:25.684Z,9.80
2023-02-11T11:06:07.184Z,11.00
2023-02-11T11:08:48.361Z,11.40
2023-02-11T11:11:23.217Z,10.90
2023-02-11T11:13:54.730Z,10.40
2023-02-11T11:16:26.960Z,10.40
2023-02-11T11:19:07.926Z,10.40
2023-02-11T11:21:50.711Z,10.50
2023-02-11T11:24:22.355Z,11.40
2023-02-11T11:26:57.627Z,11.00
2023-02-11T11:29:48.633Z,11.40
2023-02-11T11:32:27.526Z,10.90
2023-02-11T11:35:21.212Z,12.00
2023-02-11T11:37:56.809Z,11.20
2023-02-11T11:40:29.933Z,11.50
2023-02-11T11:43:14.489Z,10.90
2023-02-11T11:46:00.510Z,9.50
2023-02-11T11:48:37.886Z,10.20
2023-02-11T11:51:11.811Z,9.30
2023-02-11T11:53:58.822Z,10.30
2023-02-11T11:56:35.118Z,8.80
2023-02-11T11:59:14.054Z,9.90
2023-02-11T12:02:28.768Z,9.80
2023-02-11T12:05:36.459Z,9.60
2023-02-11T12:08:23.667Z,10.50
2023-02-11T12:10:55.112Z,9.90
2023-02-11T12:13:37.639Z,11.20
2023-02-11T12:16:39.639Z,11.60
2023-02-11T12:19:33.169Z,10.30
2023-02-11T12:22:10.164Z,12.60
2023-02-11T12:25:06.096Z,11.50
2023-02-11T12:28:16.489Z,10.50
2023-02-11T12:31:28.031Z,12.30
2023-02-11T12:34:35.828Z,11.40
2023-02-11T12:37:32.360Z,10.20
2023-02-11T12:40:19.212Z,12.20
2023-02-11T12:43:18.200Z,13.50
2023-02-11T12:46:33.622Z,12.30
2023-02-11T12:49:02.179Z,10.90
2023-02-11T12:52:31.397Z,13.20
2023-02-11T12:55:16.377Z,12.10
2023-02-11T12:57:46.772Z,13.70
2023-02-11T13:00:52.075Z,13.60
2023-02-11T13:03:48.383Z,12.60
2023-02-11T13:06:28.722Z,13.00
2023-02-11T13:09:05.884Z,13.50
2023-02-11T13:11:52.270Z,12.50
2023-02-11T13:14:41.235Z,11.40
2023-02-11T13:17:48.005Z,11.60
2023-02-11T13:20:36.654Z,13.30
2023-02-11T13:23:22.445Z,12.70
2023-02-11T13:26:04.441Z,13.20
2023-02-11T13:29:01.176Z,10.40
2023-02-11T13:31:30.423Z,12.60
2023-02-11T13:33:59.207Z,10.50
2023-02-11T13:36:32.961Z,12.20
2023-02-11T13:39:06.791Z,12.70
2023-02-11T13:41:42.015Z,13.30
2023-02-11T13:44:10.528Z,13.70
2023-02-11T13:47:05.203Z,13.60
2023-02-11T13:49:49.372Z,11.90
2023-02-11T13:52:31.367Z,12.20
2023-02-11T13:55:23.034Z,14.30
2023-02-11T13:58:06.847Z,14.10
2023-02-11T14:00:35.414Z,13.30
2023-02-11T14:03:31.369Z,14.40
2023-02-11T14:06:27.436Z,13.00
2023-02-11T14:09:09.677Z,12.80
2023-02-11T14:12:14.778Z,15.10
2023-02-11T14:15:21.257Z,14.90
2023-02-11T14:17:50.166Z,14.70
2023-02-11T14:20:44.238Z,13.00
2023-02-11T14:23:27.448Z,13.30
2023-02-11T14:26:25.930Z,14.10
2023-02-11T14:29:01.790Z,15.40
2023-02-11T14:31:55.255Z,12.60
2023-02-11T14:34:44.766Z,13.90
2023-02-11T14:37:50.638Z,12.60
2023-02-11T14:40:34.930Z,14.90
2023-02-11T14:43:27.217Z,12.70
2023-02-11T14:45:59.141Z,13.50
2023-02-11T14:48:32.732Z,15.60
2023-02-11T14:51:26.963Z,14.70
2023-02-11T14:54:17.420Z,14.30
2023-02-11T14:56:47.034Z,12.60
2023-02-11T14:59:21.941Z,13.10
2023-02-11T15:01:54.960Z,14.80
2023-02-11T15:04:31.933Z,14.20
2023-02-11T15:07:07.603Z,13.90
2023-02-11T15:09:50.846Z,14.40
2023-02-11T15:12:24.945Z,12.70
2023-02-11T15:14:58.922Z,12.50
2023-02-11T15:17:32.423Z,13.80
2023-02-11T15:20:02.836Z,15.00
2023-02-11T15:22:37.101Z,12.70
2023-02-11T15:25:20.649Z,12.50
2023-02-11T15:27:53.613Z,12.40
2023-02-11T15:30:22.199Z,12.80
2023-02-11T15:33:00.596Z,14.00
2023-02-11T15:35:41.293Z,12.90
2023-02-11T15:38:13.922Z,13.20
2023-02-11T15:41:01.127Z,12.10
2023-02-11T15:43:48.185Z,12.60
2023-02-11T15:46:21.523Z,11.80
2023-02-11T15:48:53.431Z,12.40
2023-02-11T15:51:29.823Z,12.00
2023-02-11T15:54:16.682Z,12.30
2023-02-11T15:56:55.736Z,14.00
2023-02-11T15:59:30.786Z,12.60
2023-02-11T16:02:16.435Z,12.30
2023-02-11T16:05:08.072Z,12.80
2023-02-11T16:07:49.893Z,13.00
2023-02-11T16:10:36.386Z,12.40
2023-02-11T16:13:07.894Z,11.50
2023-02-11T16:15:57.431Z,11.80
2023-02-11T16:18:38.454Z,13.50
2023-02-11T16:21:18.553Z,13.60
2023-02-11T16:23:56.549Z,12.50
2023-02-11T16:26:30.748Z,13.00
2023-02-11T16:29:07.299Z,13.80
2023-02-11T16:31:39.242Z,12.50
2023-02-11T16:34:25.702Z,11.70
2023-02-11T16:36:54.279Z,12.10
2023-02-11T16:39:23.138Z,12.00
2023-02-11T16:41:52.780Z,12.80
2023-02-11T16:44:21.300Z,11.70
2023-02-11T16:46:50.427Z,13.10
2023-02-11T16:49:29.154Z,13.30
2023-02-11T16:52:02.153Z,12.70
2023-02-11T16:54:31.019Z,12.50
2023-02-11T16:56:59.707Z,12.20
2023-02-11T16:59:28.698Z,11.00
2023-02-11T17:01:58.363Z,13.30
2023-02-11T17:06:59.641Z,12.90
2023-02-11T17:09:30.864Z,13.50
2023-02-11T17:12:00.470Z,15.10
2023-02-11T17:14:29.661Z,15.20
2023-02-11T17:16:58.506Z,15.20
2023-02-11T17:19:27.061Z,13.70
2023-02-11T17:21:55.726Z,15.00
2023-02-11T17:24:24.254Z,15.80
2023-02-11T17:26:52.844Z,15.50
2023-02-11T17:29:24.738Z,16.30
2023-02-11T17:31:54.424Z,16.40
2023-02-11T17:34:23.978Z,16.20
2023-02-11T17:36:52.514Z,13.70
2023-02-11T17:39:21.383Z,16.70
2023-02-11T17:41:49.971Z,16.90
2023-02-11T17:44:18.694Z,18.60
2023-02-11T17:46:47.203Z,18.80
2023-02-11T17:49:16.648Z,18.60
2023-02-11T17:51:45.398Z,18.70
2023-02-11T17:54:19.513Z,16.30
2023-02-11T17:56:51.006Z,16.30
2023-02-11T17:59:21.034Z,16.30
2023-02-11T18:01:49.605Z,15.10
2023-02-11T18:04:20.137Z,18.60
2023-02-11T18:06:48.838Z,16.60
2023-02-11T18:09:17.498Z,13.60
2023-02-11T18:11:46.412Z,15.50
2023-02-11T18:14:14.984Z,17.60
2023-02-11T18:16:46.080Z,16.60
2023-02-11T18:19:14.720Z,15.30
2023-02-11T18:21:43.339Z,17.20
2023-02-11T18:24:11.927Z,17.10
2023-02-11T18:26:40.573Z,16.70
2023-02-11T18:29:09.160Z,17.10
2023-02-11T18:31:38.251Z,16.90
2023-02-11T18:34:10.841Z,16.80
2023-02-11T18:36:39.655Z,16.30
2023-02-11T18:39:08.497Z,18.80
2023-02-11T18:41:37.270Z,18.10
2023-02-11T18:44:05.892Z,17.50
2023-02-11T18:46:34.496Z,17.80
2023-02-11T18:49:03.222Z,17.60
2023-02-11T18:51:32.695Z,18.60
2023-02-11T18:54:02.148Z,18.00
2023-02-11T18:56:30.814Z,18.60
2023-02-11T18:59:01.531Z,18.20
2023-02-11T19:01:33.874Z,18.40
2023-02-11T19:04:05.343Z,19.30
2023-02-11T19:06:38.178Z,18.40
2023-02-11T19:09:11.494Z,17.50
2023-02-11T19:11:50.686Z,17.10
2023-02-11T19:14:26.290Z,18.90
2023-02-11T19:16:58.789Z,20.90
2023-02-11T19:19:31.924Z,20.40
2023-02-11T19:22:01.961Z,23.00
2023-02-11T19:24:31.071Z,21.80
2023-02-11T19:27:03.782Z,22.50
2023-02-11T19:29:35.437Z,22.50
2023-02-11T19:32:06.454Z,25.50
2023-02-11T19:34:41.435Z,19.20
2023-02-11T19:37:13.048Z,20.70
2023-02-11T19:39:43.076Z,21.40
2023-02-11T19:42:12.358Z,17.30
2023-02-11T19:44:41.179Z,16.50
2023-02-11T19:47:10.899Z,15.70
2023-02-11T19:49:39.770Z,17.30
2023-02-11T19:52:08.463Z,16.20
2023-02-11T19:54:38.689Z,16.30
2023-02-11T19:57:07.343Z,15.80
2023-02-11T19:59:35.892Z,16.20
2023-02-11T20:02:04.740Z,16.30
2023-02-11T20:04:33.509Z,15.10
2023-02-11T20:07:02.184Z,15.70
2023-02-11T20:09:31.988Z,16.80
2023-02-11T20:12:00.824Z,16.00
2023-02-11T20:14:29.393Z,16.50
2023-02-11T20:16:58.078Z,17.60
2023-02-11T20:19:28.212Z,17.30
2023-02-11T20:21:57.060Z,18.50
2023-02-11T20:24:26.575Z,17.60
2023-02-11T20:26:58.236Z,19.10
2023-02-11T20:29:27.578Z,18.50
2023-02-11T20:31:56.316Z,18.50
2023-02-11T20:34:25.646Z,21.00
2023-02-11T20:36:55.076Z,18.30
2023-02-11T20:39:25.437Z,20.40
2023-02-11T20:41:54.888Z,19.50
2023-02-11T20:44:24.293Z,19.80
2023-02-11T20:46:54.562Z,20.20
2023-02-11T20:49:25.183Z,19.30
2023-02-11T20:51:54.463Z,20.40
2023-02-11T20:54:24.507Z,19.00
2023-02-11T21:01:55.558Z,18.60
2023-02-11T21:04:28.922Z,20.00
2023-02-11T21:07:01.417Z,19.70
2023-02-11T21:09:33.712Z,20.10
2023-02-11T21:12:03.222Z,20.80
2023-02-11T21:14:31.940Z,18.90
2023-02-11T21:17:00.735Z,19.50
2023-02-11T21:19:29.624Z,17.10
2023-02-11T21:22:00.898Z,20.00
2023-02-11T21:24:31.206Z,19.20
2023-02-11T21:26:59.986Z,17.70
2023-02-11T21:29:29.216Z,18.70
2023-02-11T21:31:57.958Z,17.90
2023-02-11T21:34:26.765Z,17.10
2023-02-11T21:36:55.447Z,16.90
2023-02-11T21:39:24.085Z,17.80
2023-02-11T21:41:52.819Z,19.70
2023-02-11T21:44:21.506Z,19.00
2023-02-11T21:46:50.351Z,17.90
2023-02-11T21:49:20.438Z,16.60
2023-02-11T21:51:49.103Z,18.20
2023-02-11T21:54:19.112Z,19.20
2023-02-11T21:56:51.866Z,17.20
2023-02-11T21:59:20.581Z,18.40
2023-02-11T22:01:49.363Z,20.70
2023-02-11T22:04:18.216Z,19.70
2023-02-11T22:06:47.044Z,18.50
2023-02-11T22:09:16.052Z,20.10
2023-02-11T22:11:44.926Z,20.40
2023-02-11T22:14:13.533Z,18.90
2023-02-11T22:16:45.860Z,18.90
2023-02-11T22:19:15.245Z,19.30
2023-02-11T22:21:43.970Z,18.60
2023-02-11T22:24:12.794Z,18.80
2023-02-11T22:26:41.556Z,17.80
2023-02-11T22:29:11.376Z,19.50
2023-02-11T22:31:40.145Z,19.90
2023-02-11T22:34:08.826Z,20.90
2023-02-11T22:36:40.624Z,17.70
2023-02-11T22:39:15.977Z,19.60
2023-02-11T22:41:46.590Z,20.40
2023-02-11T22:44:20.240Z,20.30
2023-02-11T22:46:49.293Z,19.30
2023-02-11T22:49:19.902Z,19.60
2023-02-11T22:51:48.814Z,19.20
2023-02-11T22:54:19.360Z,19.50
2023-02-11T22:56:51.560Z,21.30
2023-02-11T22:59:20.880Z,20.80
2023-02-11T23:01:50.424Z,19.60
2023-02-11T23:04:19.578Z,19.70
2023-02-11T23:06:48.182Z,19.80
2023-02-11T23:09:17.350Z,20.60
2023-02-11T23:11:47.169Z,20.40
2023-02-11T23:14:15.952Z,21.70
2023-02-11T23:16:44.807Z,21.50
2023-02-11T23:19:13.672Z,20.20
2023-02-11T23:21:42.518Z,19.80
2023-02-11T23:24:14.202Z,20.00
2023-02-11T23:26:44.497Z,20.30
2023-02-11T23:29:13.593Z,20.20
2023-02-11T23:31:45.464Z,19.70
2023-02-11T23:34:17.413Z,20.10
2023-02-11T23:36:46.343Z,19.50
2023-02-11T23:39:16.437Z,19.40
2023-02-11T23:41:46.000Z,19.30
2023-02-11T23:44:14.623Z,19.80
2023-02-11T23:46:43.528Z,19.90
2023-02-11T23:49:12.236Z,18.30
2023-02-11T23:51:40.891Z,18.60
2023-02-11T23:54:14.085Z,18.20
2023-02-11T23:56:42.877Z,18.10
2023-02-11T23:59:11.967Z,18.30
